Network per fulmini e temporali in tempo reale
Regioni/Paesi:
Lista delle stazioni per "-" ordinata decrescente da Effettività L
(Effettività L = Numero di segnali ricevuti nell'utlima ora che sono stati utilizzati per calcolare la posizione di un fulmine con distanza fino a 5000 km (assoluto/relativo))
StazioneCittàCommentoPaeseStatoUltimo segnaleSegnaliEffettività SEffettività MEffettività L
1112Springfieldtesting coax loopsUnited States / MissouriRunning2018-02-22 20:187450|0%346|55%370|49%
2100Imperial OaksBlue, H- 2x200mm Ferrite, E-10...United States / TexasRunning2018-02-22 20:187560|0%294|53%374|49%
1199Waterville800mm 5 turn coax ungroundedUnited States / OhioRunning2018-02-22 20:1810000|0%0|0%468|46%
976Eau Claire, WI USAEfield 20 cm vertical wire pro...United States / WisconsinRunning2018-02-22 20:189250|0%0|0%430|46%
1965BoulderFoothills of the Rocky Mountai...United States / ColoradoRunning2018-02-22 20:187140|0%0|0%327|45%
1823UrbanaBlue, 200mm unshielded ferrite...United States / IllinoisRunning2018-02-22 20:1811100|0%0|0%474|42%
934Mauston250mm x 7.5mm ferriteUnited States / WisconsinRunning2018-02-22 20:176460|0%0|0%342|41%
1175IndependenceSystem Red shielded ferrite an...United States / IowaRunning2018-02-22 20:1815330|0%0|0%571|37%
1742Oakhill2Blue with 2x200mm ferriteUnited States / TexasRunning2018-02-22 20:1817260|0%272|37%632|36%
1451Clifton (Blue)H-3Δ 250X7.5mm, E-200mmUnited States / VirginiaRunning2018-02-22 20:188290|0%0|0%284|34%
1933MilfordUnited States / PennsylvaniaRunning2018-02-22 20:186670|0%0|0%265|33%
1734OakhillBlue with 2x200mm ferriteUnited States / TexasRunning2018-02-22 20:1818530|0%267|34%619|33%
1189Clifton (Red)H-2∟250X7.5mm, E-200mmUnited States / VirginiaRunning2018-02-22 20:186150|0%0|0%288|33%
1591Sun PrairieSystem Blue with 10cm E-Field ...United States / WisconsinRunning2018-02-22 20:188300|0%0|0%278|33%
1505Eau ClaireBlue System H&E fieldsUnited States / WisconsinRunning2018-02-22 20:1810380|0%0|0%343|33%
1703Austin, TXSystem BlueUnited States / TexasRunning2018-02-22 20:1816020|0%262|32%498|31%
1942Cedar Park, TXJim K5KTF - BlueUnited States / TexasRunning2018-02-22 20:1818280|0%296|31%529|28%
1743Oakhill3Blue with 2x200mm ferriteUnited States / TexasRunning2018-02-22 20:1821480|0%268|29%615|28%
1319IgoumenitsaRED H-Field metar.grGreeceRunning2018-02-22 20:183700|0%31|53%109|28%
1428KercaszomorHungaryRunning2018-02-22 20:184160|0%28|44%119|28%
1439Frankfort BH-3▲-250x7.5mm -- E-150x3mmUnited States / KentuckyRunning2018-02-22 20:178220|0%2|58%229|27%
140PerugiaItalyRunning2018-02-22 20:173470|0%25|45%103|27%
1939HillsboroughH-3Δ 300x7.5 & 150mm E-FieldUnited States / North CarolinaRunning2018-02-22 20:185590|0%0|0%250|26%
391ArezzoShielded ferrite rods, 20cm - ...ItalyRunning2018-02-22 20:173940|0%24|40%105|26%
404GuntramsdorfAustriaRunning2018-02-22 20:173790|0%0|0%101|26%
954Nhh REDHungaryRunning2018-02-22 20:184310|0%0|0%114|26%
1565De Pere250mm x 7.5mm ferrite, E-Field...United States / WisconsinRunning2018-02-22 20:1811680|0%0|0%304|25%
1093North Bethesda (Red)Occasional powerline interfere...United States / MarylandRunning2018-02-22 20:186670|0%0|0%205|25%
1745WeimarNE5U Lightning Detection Stati...United States / TexasRunning2018-02-22 20:1823990|0%165|25%615|25%
689Frankfort RH-2⚡ 300x7.5mm -- E-350x2mm...United States / KentuckyRunning2018-02-22 20:1714250|0%2|34%367|25%
941BakonyszombathelyHungaryRunning2018-02-22 20:185890|0%14|44%153|25%
1539MacombBlue Unshielded 9.5 X 210mm Ma...United States / IllinoisRunning2018-02-22 20:1813960|0%0|0%347|24%
1901Miki HyogoShonan Institute of TechnologyJapanRunning2018-02-22 20:1815970|0%7|39%395|24%
1660PalmyraShielded Ferrites H-Delta + E-...United States / VirginiaRunning2018-02-22 20:1819780|0%0|0%487|24%
1044StradenSystem RED - FerritAustriaRunning2018-02-22 20:173090|0%31|50%101|24%
1775NagykanizsaHungaryRunning2018-02-22 20:155260|0%36|45%129|24%
380Ruhland2GermanyRunning2018-02-22 20:173640|0%0|0%91|24%
1750Town of RussellBlue H (2x20cm), E 10cm, filte...United States / WisconsinRunning2018-02-22 20:1824480|0%0|0%592|24%
1270Red Deer, AlbertaE-Field - 250mmCanadaRunning2018-02-22 20:1813750|0%0|0%332|24%
936BarcsHungaryRunning2018-02-22 20:183530|0%24|44%88|24%
417Roustika, CreteGreeceRunning2018-02-22 20:174970|0%21|36%122|24%
1729SzolnokHungaryRunning2018-02-22 20:154600|0%0|0%109|23%
1139Graz - RagnitzSystem RED, ferrite rods, shie...AustriaRunning2018-02-22 20:186040|0%40|43%145|23%
1435SzeghalomHungaryRunning2018-02-22 20:185330|0%0|0%127|23%
1997NasushiobaraShonan Institute of TechnologyJapanRunning2018-02-22 20:189870|0%3|44%230|23%
1225FlagstaffPower Line Noise:Variable GainUnited States / ArizonaRunning2018-02-22 20:185240|0%0|0%233|23%
252Melin (GREEN)BelgiumRunning2018-02-22 20:174310|0%0|0%101|23%
856ReutlingenRED,Ant.SKS2ØØ/1ØN DLØRTGermanyRunning2018-02-22 20:183440|0%0|0%85|23%
502Rivalta di TorinoItalyRunning2018-02-22 20:184060|0%0|0%96|23%
1326Oinoi ViotiasRED H-FieldGreeceRunning2018-02-22 20:183770|0%24|70%86|22%
734Genk (RED)BelgiumRunning2018-02-22 20:183450|0%0|0%85|22%
690GangloffsömmernGermanyRunning2018-02-22 20:173390|0%0|0%85|22%
687Rheinau-MemprechtshofenGermanyRunning2018-02-22 20:176270|0%0|0%142|22%
1271OssRED, 200mm ferrite, E under co...NetherlandsRunning2018-02-22 20:185920|0%0|0%137|22%
785Cuxhaven-OxstedtSystem RED with shielded ferri...GermanyRunning2018-02-22 20:186380|0%0|0%146|22%
1623Brzeg DolnyPolandRunning2018-02-22 20:153770|0%0|0%83|22%
1152SittardPA4EME : Syst. RED at 24 m AGLNetherlandsRunning2018-02-22 20:186300|0%0|0%140|22%
300LéognanFranceRunning2018-02-22 20:174320|0%0|0%96|21%
701Husseren-WesserlingFranceRunning2018-02-22 20:184700|0%0|0%105|21%
1048IpswichUnited KingdomRunning2018-02-22 20:184260|0%0|0%94|21%
1125TiszafüredHungaryRunning2018-02-22 20:183190|0%0|0%88|21%
741StrøbyDenmarkRunning2018-02-22 20:183300|0%0|0%84|21%
2108Arbizzano di NegrarIZ3VFK - Op. LucaItalyRunning2018-02-22 20:166090|0%22|31%132|21%
1923KitamiShonan Institute of TechnologyJapanRunning2018-02-22 20:171760|0%0|0%38|21%
774Gönningen-ReutlingenRED,Ant.SKS3ØØ/1ØN DBØGKMGermanyRunning2018-02-22 20:173150|0%0|0%87|21%
1543BolligenBLUE - 3 x 20cm Ferrite RodSwitzerlandRunning2018-02-22 20:153440|0%0|0%82|21%
1401ZicavoFranceRunning2018-02-22 20:186040|0%11|38%132|21%
797Palestrina (RM)ItalyRunning2018-02-22 20:185440|0%32|40%113|21%
759Hof bei SalzburgAustriaRunning2018-02-22 20:185760|0%0|0%123|21%
1628Bos-cha, GR (BLUE)BLUE - HB9DRTSwitzerlandRunning2018-02-22 20:155560|0%0|0%118|21%
1785Dorfen (RED)2x SKS200/15N /w E-Field & AS3...GermanyRunning2018-02-22 20:155710|0%0|0%121|21%
1177Athelstane300mm x 7.5mm ferrite, E-Field...United States / WisconsinRunning2018-02-22 20:1815390|0%0|0%326|21%
1124SátoraljaújhelyHungaryRunning2018-02-22 20:183150|0%0|0%87|21%
43Bremen-VegesackGermanyRunning2018-02-22 20:174510|0%0|0%98|21%
1216Elincourt Sainte Marguerite - ...Station Red - 200mm ferrites s...FranceRunning2018-02-22 20:186420|0%0|0%136|21%
1397SouprosseFranceRunning2018-02-22 20:173700|0%6|82%79|21%
718Schwalmtal/Rainrod (RED)GermanyRunning2018-02-22 20:185280|0%0|0%111|20%
735Leipzig / LößnigGermanyRunning2018-02-22 20:187800|0%0|0%165|20%
1590Canton3 x 200mm ferrite plus 140mm e...United States / New YorkRunning2018-02-22 20:1820400|0%0|0%427|20%
1258Saviore dell'Adamello (BS) - C...ItalyRunning2018-02-22 20:184820|0%1|6%100|20%
931SchorndorfSystem REDGermanyRunning2018-02-22 20:185410|0%0|0%113|20%
752EpeRED frame antenna and E-fieldNetherlandsRunning2018-02-22 20:183180|0%0|0%81|20%
1171Cluj-NapocaRED, 20cm ferrite, shieldedRomaniaRunning2018-02-22 20:186420|0%0|0%131|20%
1327Breitenbach am InnAustriaRunning2018-02-22 20:186420|0%0|0%134|20%
1147Aberdeen@daveauld, System RedUnited KingdomRunning2018-02-22 20:184270|0%0|0%89|20%
2013Kota KinabaluReplacement for 1867; 代替 1867....MalaysiaRunning2018-02-22 20:1821790|0%10|36%446|20%
694ZoetermeerNetherlandsRunning2018-02-22 20:183770|0%0|0%79|20%
524SalzgitterGermanyRunning2018-02-22 20:185300|0%0|0%108|20%
1346Bobcaygeon2-1M LoopsCanadaRunning2018-02-22 20:1826490|0%0|0%538|20%
1655LubbockNational Weather Service (Unde...United States / TexasRunning2018-02-22 20:1829400|0%141|20%597|20%
546BassersdorfGreen, frame ant. shieldedSwitzerlandRunning2018-02-22 20:185010|0%0|0%104|20%
688EinbeckREDGermanyRunning2018-02-22 20:189440|0%0|0%192|20%
1075Warrington, Cheshire (RED)RED - Indoor H FerritesUnited KingdomRunning2018-02-22 20:184540|0%0|0%94|20%
992HeillecourtREDFranceRunning2018-02-22 20:184660|0%0|0%95|20%
1308Siófok-Club218HungaryRunning2018-02-22 20:172790|0%19|40%92|19%
1201Rive-de-gierSystem REDFranceRunning2018-02-22 20:174360|0%0|0%89|19%
1754Geldermalsen OostSystem BlueNetherlandsRunning2018-02-22 20:153720|0%0|0%74|19%
1094Liverpool.United KingdomRunning2018-02-22 20:183410|0%0|0%70|19%
1153MönchengladbachGermanyRunning2018-02-22 20:185140|0%0|0%104|19%
1391Marsac sur l'IsleFranceRunning2018-02-22 20:185030|0%0|0%101|19%
Un servizio globale, in tempo reale, basato su una community per creare un network di localizzazione dei fulmini. © 2003-2018 Blitzortung.org Contributori
Seleziona lingua del sito
češtinadanskdeutschελληνικάenglishespañolsuomeksifrançaismagyaritaliano日本語latviskinederlandsenorskмакедонскиpolskiрусскийсрпскиsvenskatürkукраїнський
If your language is not supported and if you want to adapt the menu language, then write an email to info ☺ blitzortung.org.